createdAt,value
2023-05-08T00:00:31.778Z,99481.44
2023-05-08T00:02:58.506Z,99482.38
2023-05-08T00:05:25.230Z,99475.22
2023-05-08T00:07:53.471Z,99484.22
2023-05-08T00:10:20.059Z,99478.22
2023-05-08T00:12:46.665Z,99480.78
2023-05-08T00:15:13.269Z,99474.88
2023-05-08T00:17:39.870Z,99474.66
2023-05-08T00:20:08.778Z,99476.78
2023-05-08T00:22:35.669Z,99476.59
2023-05-08T00:25:02.719Z,99478.84
2023-05-08T00:27:29.355Z,99469.88
2023-05-08T00:29:55.928Z,99467.38
2023-05-08T00:32:22.612Z,99476.44
2023-05-08T00:34:49.555Z,99476.56
2023-05-08T00:37:16.539Z,99476.13
2023-05-08T00:39:43.289Z,99476.03
2023-05-08T00:42:09.896Z,99468.19
2023-05-08T00:44:36.516Z,99473.47
2023-05-08T00:47:03.341Z,99465.44
2023-05-08T00:53:27.223Z,99467.56
2023-05-08T00:55:54.463Z,99472.16
2023-05-08T00:58:23.280Z,99476.63
2023-05-08T01:01:16.461Z,99467.81
2023-05-08T01:03:44.882Z,99470.22
2023-05-08T01:06:11.981Z,99475.41
2023-05-08T01:08:39.198Z,99468.84
2023-05-08T01:11:22.210Z,99474.91
2023-05-08T01:14:13.814Z,99477.34
2023-05-08T01:17:05.370Z,99470.34
2023-05-08T01:19:50.279Z,99472.41
2023-05-08T01:22:25.817Z,99477.06
2023-05-08T01:25:28.398Z,99481.50
2023-05-08T01:28:36.752Z,99482.94
2023-05-08T01:31:30.581Z,99481.56
2023-05-08T01:34:06.268Z,99486.88
2023-05-08T01:36:35.976Z,99482.66
2023-05-08T01:39:28.161Z,99486.94
2023-05-08T01:42:04.633Z,99484.47
2023-05-08T01:44:41.489Z,99489.59
2023-05-08T01:47:10.823Z,99487.19
2023-05-08T01:49:45.234Z,99490.50
2023-05-08T01:52:20.887Z,99490.09
2023-05-08T01:55:03.945Z,99485.22
2023-05-08T01:57:34.822Z,99490.47
2023-05-08T02:00:04.383Z,99491.91
2023-05-08T02:02:37.309Z,99493.03
2023-05-08T02:05:06.032Z,99487.94
2023-05-08T02:07:35.245Z,99499.66
2023-05-08T02:10:03.587Z,99499.22
2023-05-08T02:12:32.445Z,99497.84
2023-05-08T02:15:01.400Z,99500.75
2023-05-08T02:17:30.381Z,99504.00
2023-05-08T02:19:59.029Z,99505.09
2023-05-08T02:22:26.365Z,99502.72
2023-05-08T02:24:57.810Z,99505.09
2023-05-08T02:27:29.103Z,99508.63
2023-05-08T02:29:57.229Z,99503.50
2023-05-08T02:32:26.983Z,99505.09
2023-05-08T02:35:03.080Z,99513.50
2023-05-08T02:37:32.170Z,99515.09
2023-05-08T02:40:01.596Z,99519.72
2023-05-08T02:42:29.091Z,99513.69
2023-05-08T02:44:56.054Z,99518.47
2023-05-08T02:47:27.718Z,99510.50
2023-05-08T02:50:02.694Z,99515.94
2023-05-08T02:52:43.018Z,99517.78
2023-05-08T02:55:41.178Z,99514.66
2023-05-08T02:58:34.869Z,99517.81
2023-05-08T03:01:11.550Z,99512.75
2023-05-08T03:03:43.401Z,99516.47
2023-05-08T03:06:14.750Z,99521.38
2023-05-08T03:08:43.045Z,99521.06
2023-05-08T03:11:15.837Z,99515.34
2023-05-08T03:13:44.702Z,99514.56
2023-05-08T03:16:24.297Z,99515.78
2023-05-08T03:19:01.548Z,99522.06
2023-05-08T03:21:30.495Z,99518.25
2023-05-08T03:23:59.724Z,99526.50
2023-05-08T03:26:26.599Z,99517.13
2023-05-08T03:28:53.970Z,99520.47
2023-05-08T03:31:26.822Z,99520.72
2023-05-08T03:33:55.261Z,99518.59
2023-05-08T03:36:22.779Z,99523.72
2023-05-08T03:38:49.808Z,99523.81
2023-05-08T03:41:16.867Z,99518.53
2023-05-08T03:43:44.174Z,99519.34
2023-05-08T03:46:12.487Z,99518.25
2023-05-08T03:48:41.026Z,99515.00
2023-05-08T03:51:07.837Z,99516.63
2023-05-08T03:53:38.103Z,99512.13
2023-05-08T03:56:05.221Z,99521.75
2023-05-08T03:58:55.937Z,99516.69
2023-05-08T04:01:28.746Z,99519.16
2023-05-08T04:04:16.293Z,99517.22
2023-05-08T04:07:20.590Z,99517.63
2023-05-08T04:10:09.440Z,99518.72
2023-05-08T04:12:45.557Z,99517.47
2023-05-08T04:15:24.481Z,99522.50
2023-05-08T04:18:04.775Z,99522.59
2023-05-08T04:20:32.492Z,99520.81
2023-05-08T04:23:01.052Z,99532.34
2023-05-08T04:25:30.506Z,99532.66
2023-05-08T04:27:58.808Z,99533.69
2023-05-08T04:30:27.177Z,99531.84
2023-05-08T04:32:54.469Z,99531.56
2023-05-08T04:35:22.433Z,99539.78
2023-05-08T04:37:49.555Z,99535.06
2023-05-08T04:40:17.222Z,99540.69
2023-05-08T04:42:47.446Z,99542.09
2023-05-08T04:45:17.032Z,99540.38
2023-05-08T04:47:43.992Z,99541.53
2023-05-08T04:50:11.405Z,99534.53
2023-05-08T04:52:38.074Z,99541.63
2023-05-08T04:55:06.601Z,99549.03
2023-05-08T04:57:35.597Z,99544.28
2023-05-08T05:00:02.342Z,99551.78
2023-05-08T05:02:30.976Z,99554.34
2023-05-08T05:05:01.344Z,99552.63
2023-05-08T05:07:32.752Z,99550.50
2023-05-08T05:10:00.674Z,99552.22
2023-05-08T05:12:27.914Z,99559.06
2023-05-08T05:14:55.092Z,99566.03
2023-05-08T05:17:22.969Z,99565.53
2023-05-08T05:19:51.470Z,99571.06
2023-05-08T05:22:18.929Z,99575.00
2023-05-08T05:24:45.517Z,99562.13
2023-05-08T05:27:12.430Z,99571.44
2023-05-08T05:29:39.356Z,99571.91
2023-05-08T05:32:09.161Z,99568.84
2023-05-08T05:34:36.303Z,99585.06
2023-05-08T05:37:03.563Z,99576.72
2023-05-08T05:39:30.310Z,99586.13
2023-05-08T05:41:56.960Z,99583.78
2023-05-08T05:44:23.955Z,99592.59
2023-05-08T05:46:50.902Z,99595.75
2023-05-08T05:49:17.659Z,99591.41
2023-05-08T05:51:44.273Z,99595.00
2023-05-08T05:54:10.984Z,99597.06
2023-05-08T05:56:37.861Z,99596.50
2023-05-08T05:59:06.197Z,99594.66
2023-05-08T06:01:34.819Z,99599.59
2023-05-08T06:04:04.564Z,99592.31
2023-05-08T06:06:39.036Z,99599.84
2023-05-08T06:09:08.339Z,99602.44
2023-05-08T06:11:35.982Z,99592.16
2023-05-08T06:14:03.507Z,99596.16
2023-05-08T06:16:32.168Z,99602.38
2023-05-08T06:19:00.000Z,99601.59
2023-05-08T06:21:28.556Z,99599.09
2023-05-08T06:23:55.315Z,99598.88
2023-05-08T06:26:23.804Z,99589.72
2023-05-08T06:28:50.530Z,99601.16
2023-05-08T06:31:17.243Z,99596.06
2023-05-08T06:33:44.010Z,99598.78
2023-05-08T06:36:11.150Z,99610.78
2023-05-08T06:38:37.875Z,99598.44
2023-05-08T06:41:04.574Z,99598.84
2023-05-08T06:43:31.412Z,99604.09
2023-05-08T06:45:58.214Z,99599.19
2023-05-08T06:48:28.963Z,99595.31
2023-05-08T06:50:56.375Z,99592.81
2023-05-08T06:53:23.641Z,99595.63
2023-05-08T06:55:51.559Z,99598.34
2023-05-08T06:58:18.316Z,99604.31
2023-05-08T07:00:44.920Z,99606.00
2023-05-08T07:03:11.683Z,99606.44
2023-05-08T07:05:39.093Z,99604.91
2023-05-08T07:08:06.064Z,99610.69
2023-05-08T07:10:33.644Z,99609.16
2023-05-08T07:13:00.546Z,99603.47
2023-05-08T07:15:27.302Z,99609.16
2023-05-08T07:17:55.022Z,99614.22
2023-05-08T07:20:24.445Z,99605.06
2023-05-08T07:22:53.039Z,99611.41
2023-05-08T07:25:19.682Z,99605.03
2023-05-08T07:27:46.603Z,99607.34
2023-05-08T07:30:13.602Z,99614.22
2023-05-08T07:32:40.387Z,99612.03
2023-05-08T07:35:11.516Z,99615.19
2023-05-08T07:37:39.436Z,99608.00
2023-05-08T07:40:07.084Z,99616.28
2023-05-08T07:42:42.338Z,99614.63
2023-05-08T07:45:10.533Z,99614.63
2023-05-08T07:47:38.158Z,99617.50
2023-05-08T07:50:05.892Z,99615.13
2023-05-08T07:52:32.520Z,99619.31
2023-05-08T07:54:59.325Z,99613.13
2023-05-08T07:57:25.940Z,99617.22
2023-05-08T07:59:52.527Z,99623.59
2023-05-08T08:02:19.358Z,99616.47
2023-05-08T08:04:46.050Z,99622.59
2023-05-08T08:07:12.989Z,99621.59
2023-05-08T08:09:39.626Z,99625.09
2023-05-08T08:12:06.545Z,99622.19
2023-05-08T08:14:33.226Z,99625.56
2023-05-08T08:16:59.854Z,99628.84
2023-05-08T08:19:33.968Z,99625.75
2023-05-08T08:22:00.637Z,99625.19
2023-05-08T08:24:29.257Z,99637.63
2023-05-08T08:26:55.957Z,99627.16
2023-05-08T08:29:22.712Z,99627.09
2023-05-08T08:31:49.551Z,99625.66
2023-05-08T08:34:16.168Z,99634.09
2023-05-08T08:36:42.806Z,99635.06
2023-05-08T08:39:11.566Z,99632.97
2023-05-08T08:41:39.825Z,99633.81
2023-05-08T08:44:07.003Z,99618.38
2023-05-08T08:46:35.166Z,99625.63
2023-05-08T08:49:05.052Z,99623.16
2023-05-08T08:51:32.809Z,99626.97
2023-05-08T08:54:15.817Z,99627.78
2023-05-08T08:56:45.712Z,99620.00
2023-05-08T08:59:13.578Z,99621.41
2023-05-08T09:01:41.973Z,99619.03
2023-05-08T09:04:09.204Z,99627.25
2023-05-08T09:06:37.092Z,99629.91
2023-05-08T09:09:04.665Z,99620.22
2023-05-08T09:11:31.270Z,99617.81
2023-05-08T09:13:58.541Z,99621.50
2023-05-08T09:16:27.928Z,99617.78
2023-05-08T09:18:54.780Z,99621.94
2023-05-08T09:21:23.196Z,99615.88
2023-05-08T09:24:04.001Z,99615.13
2023-05-08T09:26:39.942Z,99624.72
2023-05-08T09:29:17.234Z,99623.00
2023-05-08T09:31:49.124Z,99620.38
2023-05-08T09:34:27.086Z,99622.41
2023-05-08T09:37:12.071Z,99623.28
2023-05-08T09:39:43.205Z,99625.41
2023-05-08T09:42:10.499Z,99628.84
2023-05-08T09:44:44.275Z,99634.84
2023-05-08T09:47:13.712Z,99630.53
2023-05-08T09:49:56.684Z,99629.22
2023-05-08T09:52:23.970Z,99632.81
2023-05-08T09:54:58.822Z,99630.56
2023-05-08T09:57:29.609Z,99636.00
2023-05-08T10:00:08.778Z,99635.16
2023-05-08T10:02:39.350Z,99641.31
2023-05-08T10:05:31.126Z,99638.56
2023-05-08T10:08:00.226Z,99641.00
2023-05-08T10:10:29.039Z,99645.09
2023-05-08T10:12:57.095Z,99644.94
2023-05-08T10:15:26.152Z,99646.47
2023-05-08T10:18:05.288Z,99645.28
2023-05-08T10:20:33.675Z,99644.94
2023-05-08T10:23:01.418Z,99642.81
2023-05-08T10:25:32.769Z,99642.84
2023-05-08T10:28:06.531Z,99638.56
2023-05-08T10:30:34.426Z,99643.88
2023-05-08T10:33:03.413Z,99641.69
2023-05-08T10:35:31.920Z,99647.72
2023-05-08T10:37:59.491Z,99644.41
2023-05-08T10:40:26.252Z,99650.22
2023-05-08T10:42:53.996Z,99639.31
2023-05-08T10:45:20.819Z,99656.03
2023-05-08T10:48:05.549Z,99641.13
2023-05-08T10:50:54.059Z,99647.31
2023-05-08T10:53:31.530Z,99644.47
2023-05-08T10:55:59.230Z,99647.94
2023-05-08T10:58:29.634Z,99637.09
2023-05-08T11:01:07.886Z,99637.03
2023-05-08T11:03:43.984Z,99631.00
2023-05-08T11:06:11.716Z,99632.97
2023-05-08T11:08:47.940Z,99634.22
2023-05-08T11:11:24.179Z,99640.47
2023-05-08T11:13:56.307Z,99631.44
2023-05-08T11:16:54.066Z,99630.00
2023-05-08T11:19:22.457Z,99626.91
2023-05-08T11:22:13.951Z,99626.44
2023-05-08T11:24:47.742Z,99624.63
2023-05-08T11:27:17.454Z,99625.16
2023-05-08T11:29:45.156Z,99621.28
2023-05-08T11:32:12.114Z,99624.56
2023-05-08T11:34:49.266Z,99620.59
2023-05-08T11:37:24.298Z,99621.19
2023-05-08T11:39:51.210Z,99609.22
2023-05-08T11:42:27.112Z,99608.47
2023-05-08T11:45:13.129Z,99611.91
2023-05-08T11:47:45.287Z,99600.16
2023-05-08T11:50:13.743Z,99596.19
2023-05-08T11:52:42.178Z,99593.09
2023-05-08T11:55:10.764Z,99592.50
2023-05-08T11:57:37.934Z,99587.69
2023-05-08T12:00:09.882Z,99582.34
2023-05-08T12:02:43.003Z,99576.63
2023-05-08T12:05:11.244Z,99573.69
2023-05-08T12:07:48.042Z,99569.56
2023-05-08T12:10:16.030Z,99576.31
2023-05-08T12:12:44.601Z,99572.34
2023-05-08T12:15:13.623Z,99578.38
2023-05-08T12:17:41.176Z,99582.94
2023-05-08T12:20:16.855Z,99579.81
2023-05-08T12:22:51.645Z,99578.28
2023-05-08T12:25:18.807Z,99582.53
2023-05-08T12:27:45.986Z,99582.69
2023-05-08T12:30:14.777Z,99586.94
2023-05-08T12:32:42.866Z,99575.63
2023-05-08T12:35:14.034Z,99578.91
2023-05-08T12:37:41.101Z,99574.19
2023-05-08T12:40:08.781Z,99572.88
2023-05-08T12:42:47.895Z,99576.75
2023-05-08T12:45:22.065Z,99578.03
2023-05-08T12:47:49.864Z,99570.66
2023-05-08T12:50:17.994Z,99569.66
2023-05-08T12:52:44.676Z,99568.81
2023-05-08T12:55:21.503Z,99567.97
2023-05-08T12:57:58.757Z,99569.31
2023-05-08T13:00:25.526Z,99569.44
2023-05-08T13:02:55.986Z,99574.47
2023-05-08T13:05:24.197Z,99572.56
2023-05-08T13:07:51.535Z,99568.38
2023-05-08T13:10:23.987Z,99559.69
2023-05-08T13:12:52.329Z,99565.56
2023-05-08T13:15:19.011Z,99564.22
2023-05-08T13:17:45.984Z,99571.78
2023-05-08T13:20:12.943Z,99569.75
2023-05-08T13:22:39.864Z,99562.78
2023-05-08T13:25:07.301Z,99563.00
2023-05-08T13:27:33.868Z,99555.94
2023-05-08T13:30:00.557Z,99551.56
2023-05-08T13:32:27.216Z,99561.41
2023-05-08T13:34:57.553Z,99555.88
2023-05-08T13:37:26.244Z,99559.28
2023-05-08T13:39:53.199Z,99553.13
2023-05-08T13:42:19.947Z,99557.31
2023-05-08T13:44:46.603Z,99551.94
2023-05-08T13:47:13.420Z,99549.31
2023-05-08T13:49:40.254Z,99547.63
2023-05-08T13:52:07.965Z,99545.28
2023-05-08T13:54:34.640Z,99549.72
2023-05-08T13:57:02.680Z,99538.94
2023-05-08T13:59:31.193Z,99545.19
2023-05-08T14:01:57.931Z,99550.81
2023-05-08T14:04:24.969Z,99542.72
2023-05-08T14:06:51.855Z,99539.25
2023-05-08T14:09:19.245Z,99535.56
2023-05-08T14:11:46.134Z,99532.13
2023-05-08T14:14:12.735Z,99538.69
2023-05-08T14:16:39.578Z,99540.16
2023-05-08T14:19:06.337Z,99542.94
2023-05-08T14:21:34.630Z,99532.31
2023-05-08T14:24:01.839Z,99531.34
2023-05-08T14:26:28.704Z,99529.00
2023-05-08T14:28:56.150Z,99530.31
2023-05-08T14:31:23.778Z,99532.19
2023-05-08T14:33:51.223Z,99535.56
2023-05-08T14:36:17.859Z,99539.13
2023-05-08T14:38:44.876Z,99539.91
2023-05-08T14:41:11.703Z,99534.38
2023-05-08T14:43:38.448Z,99527.34
2023-05-08T14:46:05.257Z,99532.34
2023-05-08T14:48:32.243Z,99526.09
2023-05-08T14:50:59.102Z,99522.22
2023-05-08T14:53:25.995Z,99522.22
2023-05-08T14:55:53.100Z,99522.81
2023-05-08T14:58:19.912Z,99521.75
2023-05-08T15:00:46.812Z,99524.28
2023-05-08T15:03:13.625Z,99520.53
2023-05-08T15:05:40.474Z,99519.94
2023-05-08T15:08:07.166Z,99525.72
2023-05-08T15:10:33.777Z,99519.91
2023-05-08T15:13:00.620Z,99520.88
2023-05-08T15:15:27.439Z,99510.78
2023-05-08T15:17:54.094Z,99507.91
2023-05-08T15:20:21.547Z,99503.88
2023-05-08T15:22:48.441Z,99503.66
2023-05-08T15:25:15.542Z,99504.94
2023-05-08T15:27:42.673Z,99512.50
2023-05-08T15:30:09.800Z,99512.88
2023-05-08T15:32:37.481Z,99517.59
2023-05-08T15:35:05.909Z,99508.47
2023-05-08T15:37:32.525Z,99508.47
2023-05-08T15:39:59.140Z,99509.97
2023-05-08T15:42:25.778Z,99507.63
2023-05-08T15:44:56.898Z,99511.16
2023-05-08T15:47:24.488Z,99511.66
2023-05-08T15:49:51.264Z,99509.78
2023-05-08T15:52:20.053Z,99507.00
2023-05-08T15:54:47.339Z,99510.88
2023-05-08T15:57:14.817Z,99506.66
2023-05-08T15:59:42.026Z,99518.75
2023-05-08T16:02:08.974Z,99510.41
2023-05-08T16:04:36.147Z,99513.09
2023-05-08T16:07:03.018Z,99509.59
2023-05-08T16:09:29.586Z,99511.44
2023-05-08T16:11:56.206Z,99516.88
2023-05-08T16:14:22.943Z,99517.63
2023-05-08T16:16:49.755Z,99514.94
2023-05-08T16:19:17.639Z,99514.94
2023-05-08T16:21:50.239Z,99515.06
2023-05-08T16:24:16.972Z,99509.50
2023-05-08T16:26:44.145Z,99510.31
2023-05-08T16:29:10.857Z,99506.72
2023-05-08T16:31:37.516Z,99507.09
2023-05-08T16:34:04.291Z,99517.34
2023-05-08T16:36:31.158Z,99514.19
2023-05-08T16:38:57.961Z,99512.19
2023-05-08T16:41:24.660Z,99506.94
2023-05-08T16:43:51.347Z,99510.31
2023-05-08T16:46:29.171Z,99500.84
2023-05-08T16:48:56.902Z,99504.97
2023-05-08T16:51:23.673Z,99503.28
2023-05-08T16:53:50.381Z,99497.84
2023-05-08T16:56:17.237Z,99498.81
2023-05-08T16:58:43.790Z,99496.75
2023-05-08T17:01:11.746Z,99502.81
2023-05-08T17:03:38.681Z,99502.38
2023-05-08T17:06:08.826Z,99502.56
2023-05-08T17:08:35.558Z,99507.91
2023-05-08T17:11:02.265Z,99509.44
2023-05-08T17:13:29.091Z,99504.00
2023-05-08T17:15:56.103Z,99505.47
2023-05-08T17:18:22.954Z,99510.28
2023-05-08T17:21:52.975Z,99506.81
2023-05-08T17:24:19.633Z,99516.00
2023-05-08T17:26:46.294Z,99514.81
2023-05-08T17:29:13.335Z,99518.44
2023-05-08T17:31:40.249Z,99519.16
2023-05-08T17:34:06.928Z,99524.59
2023-05-08T17:36:33.716Z,99517.03
2023-05-08T17:39:03.535Z,99517.34
2023-05-08T17:41:30.356Z,99517.13
2023-05-08T17:43:56.989Z,99516.63
2023-05-08T17:46:23.771Z,99516.69
2023-05-08T17:48:50.547Z,99520.19
2023-05-08T17:51:17.145Z,99529.00
2023-05-08T17:53:44.099Z,99524.13
2023-05-08T17:56:11.140Z,99520.75
2023-05-08T17:58:37.959Z,99530.53
2023-05-08T18:01:04.874Z,99523.97
2023-05-08T18:03:31.937Z,99523.34
2023-05-08T18:05:58.617Z,99525.78
2023-05-08T18:08:25.372Z,99528.03
2023-05-08T18:10:52.036Z,99531.66
2023-05-08T18:13:19.029Z,99529.88
2023-05-08T18:15:45.908Z,99529.66
2023-05-08T18:18:12.551Z,99532.22
2023-05-08T18:20:39.182Z,99531.97
2023-05-08T18:23:05.821Z,99529.31
2023-05-08T18:25:32.547Z,99529.88
2023-05-08T18:28:02.189Z,99528.53
2023-05-08T18:30:28.886Z,99531.81
2023-05-08T18:32:55.733Z,99534.63
2023-05-08T18:35:22.350Z,99532.25
2023-05-08T18:37:48.979Z,99527.88
2023-05-08T18:40:15.942Z,99525.22
2023-05-08T18:42:42.859Z,99527.22
2023-05-08T18:45:10.154Z,99532.00
2023-05-08T18:47:36.880Z,99528.53
2023-05-08T18:50:03.761Z,99533.66
2023-05-08T18:52:30.463Z,99526.63
2023-05-08T18:54:57.282Z,99522.38
2023-05-08T18:57:23.914Z,99525.28
2023-05-08T18:59:50.829Z,99523.34
2023-05-08T19:02:17.535Z,99526.34
2023-05-08T19:04:44.122Z,99528.25
2023-05-08T19:07:10.749Z,99526.72
2023-05-08T19:09:37.398Z,99531.78
2023-05-08T19:12:04.374Z,99535.84
2023-05-08T19:14:31.186Z,99530.53
2023-05-08T19:16:58.524Z,99536.72
2023-05-08T19:19:25.537Z,99535.94
2023-05-08T19:21:52.138Z,99529.78
2023-05-08T19:24:20.806Z,99534.34
2023-05-08T19:26:47.649Z,99534.16
2023-05-08T19:29:14.256Z,99529.03
2023-05-08T19:31:41.024Z,99532.31
2023-05-08T19:34:07.987Z,99533.09
2023-05-08T19:36:37.429Z,99533.38
2023-05-08T19:39:04.415Z,99536.72
2023-05-08T19:41:31.055Z,99532.44
2023-05-08T19:43:57.669Z,99537.00
2023-05-08T19:46:24.352Z,99530.72
2023-05-08T19:48:53.768Z,99534.34
2023-05-08T19:51:21.481Z,99526.47
2023-05-08T19:53:48.259Z,99538.91
2023-05-08T19:56:14.843Z,99539.91
2023-05-08T19:58:41.470Z,99532.63
2023-05-08T20:01:08.102Z,99531.91
2023-05-08T20:03:34.993Z,99526.66
2023-05-08T20:06:01.705Z,99535.56
2023-05-08T20:08:28.522Z,99532.03
2023-05-08T20:10:55.444Z,99539.16
2023-05-08T20:13:22.093Z,99534.78
2023-05-08T20:15:48.743Z,99538.41
2023-05-08T20:18:15.478Z,99545.59
2023-05-08T20:20:42.052Z,99549.59
2023-05-08T20:23:08.679Z,99545.44
2023-05-08T20:25:35.572Z,99542.69
2023-05-08T20:28:02.418Z,99534.72
2023-05-08T20:30:29.040Z,99540.13
2023-05-08T20:32:56.413Z,99541.81
2023-05-08T20:35:23.361Z,99531.97
2023-05-08T20:37:49.997Z,99539.28
2023-05-08T20:40:17.014Z,99539.66
2023-05-08T20:42:47.779Z,99532.06
2023-05-08T20:45:14.656Z,99528.47
2023-05-08T20:47:41.680Z,99530.09
2023-05-08T20:50:08.630Z,99529.91
2023-05-08T20:52:36.768Z,99524.69
2023-05-08T20:55:05.367Z,99521.56
2023-05-08T20:57:32.020Z,99531.03
2023-05-08T20:59:58.606Z,99527.19
2023-05-08T21:02:25.366Z,99526.69
2023-05-08T21:04:52.822Z,99527.66
2023-05-08T21:07:19.522Z,99523.13
2023-05-08T21:09:46.332Z,99529.00
2023-05-08T21:12:13.013Z,99524.50
2023-05-08T21:14:39.593Z,99522.72
2023-05-08T21:17:06.161Z,99522.16
2023-05-08T21:19:32.970Z,99521.38
2023-05-08T21:21:59.552Z,99520.13
2023-05-08T21:24:26.420Z,99514.38
2023-05-08T21:26:53.390Z,99517.47
2023-05-08T21:29:20.278Z,99520.03
2023-05-08T21:31:47.284Z,99526.38
2023-05-08T21:34:14.869Z,99528.28
2023-05-08T21:36:41.476Z,99522.22
2023-05-08T21:39:08.821Z,99533.25
2023-05-08T21:41:35.440Z,99529.25
2023-05-08T21:44:02.080Z,99519.59
2023-05-08T21:46:28.913Z,99521.31
2023-05-08T21:48:55.653Z,99518.81
2023-05-08T21:51:22.352Z,99517.13
2023-05-08T21:53:49.202Z,99509.53
2023-05-08T21:56:16.490Z,99507.06
2023-05-08T21:58:43.135Z,99504.78
2023-05-08T22:01:09.757Z,99511.56
2023-05-08T22:03:36.540Z,99514.47
2023-05-08T22:06:03.481Z,99507.75
2023-05-08T22:08:30.184Z,99509.88
2023-05-08T22:10:57.225Z,99507.59
2023-05-08T22:13:23.895Z,99503.91
2023-05-08T22:15:50.919Z,99508.94
2023-05-08T22:18:18.042Z,99505.19
2023-05-08T22:20:44.649Z,99499.59
2023-05-08T22:23:11.275Z,99501.50
2023-05-08T22:25:38.028Z,99493.38
2023-05-08T22:28:04.838Z,99494.31
2023-05-08T22:30:31.526Z,99493.56
2023-05-08T22:33:01.594Z,99494.13
2023-05-08T22:35:28.560Z,99492.25
2023-05-08T22:37:57.170Z,99499.06
2023-05-08T22:40:24.198Z,99492.00
2023-05-08T22:42:51.772Z,99483.66
2023-05-08T22:45:19.070Z,99487.06
2023-05-08T22:47:45.913Z,99481.09
2023-05-08T22:50:12.794Z,99479.97
2023-05-08T22:52:39.688Z,99475.34
2023-05-08T22:55:07.240Z,99467.31
2023-05-08T22:57:33.932Z,99468.66
2023-05-08T23:00:00.837Z,99465.06
2023-05-08T23:02:36.476Z,99458.44
2023-05-08T23:05:03.822Z,99454.09
2023-05-08T23:07:30.526Z,99450.56
2023-05-08T23:09:57.143Z,99447.09
2023-05-08T23:12:23.863Z,99441.56
2023-05-08T23:14:50.444Z,99434.50
2023-05-08T23:17:17.214Z,99432.72
2023-05-08T23:19:45.290Z,99428.25
2023-05-08T23:22:12.082Z,99431.66
2023-05-08T23:24:38.676Z,99427.41
2023-05-08T23:27:05.268Z,99418.59
2023-05-08T23:29:31.881Z,99408.72
2023-05-08T23:31:58.443Z,99412.06
2023-05-08T23:34:25.317Z,99409.59
2023-05-08T23:36:51.934Z,99408.72
2023-05-08T23:39:18.615Z,99413.75
2023-05-08T23:41:45.306Z,99406.00
2023-05-08T23:44:11.973Z,99406.75
2023-05-08T23:46:38.706Z,99405.03
2023-05-08T23:49:05.586Z,99409.22
2023-05-08T23:51:32.531Z,99409.41
2023-05-08T23:53:59.284Z,99400.31
2023-05-08T23:56:26.958Z,99406.28
2023-05-08T23:58:53.702Z,99408.06
